sensor_id;sensor_type;location;lat;lon;timestamp;P1;durP1;ratioP1;P2;durP2;ratioP2
41456;SDS011;27197;51.752;5.220;2023-07-16T05:08:45;6.40;;;3.25;;
41456;SDS011;27197;51.752;5.220;2023-07-16T05:11:20;6.80;;;3.50;;
41456;SDS011;27197;51.752;5.220;2023-07-16T05:13:48;10.78;;;4.10;;
41456;SDS011;27197;51.752;5.220;2023-07-16T05:16:22;7.25;;;3.08;;
41456;SDS011;27197;51.752;5.220;2023-07-16T05:18:51;8.30;;;3.90;;
41456;SDS011;27197;51.752;5.220;2023-07-16T05:21:23;8.10;;;4.00;;
41456;SDS011;27197;51.752;5.220;2023-07-16T05:23:55;7.47;;;4.30;;
41456;SDS011;27197;51.752;5.220;2023-07-16T05:26:26;7.95;;;3.83;;
41456;SDS011;27197;51.752;5.220;2023-07-16T05:29:00;7.25;;;3.70;;
41456;SDS011;27197;51.752;5.220;2023-07-16T05:31:29;7.17;;;3.60;;
41456;SDS011;27197;51.752;5.220;2023-07-16T05:34:01;8.35;;;4.87;;
41456;SDS011;27197;51.752;5.220;2023-07-16T05:36:31;8.43;;;4.00;;
41456;SDS011;27197;51.752;5.220;2023-07-16T05:39:05;5.62;;;3.47;;
41456;SDS011;27197;51.752;5.220;2023-07-16T05:41:34;8.55;;;3.87;;
41456;SDS011;27197;51.752;5.220;2023-07-16T05:44:07;7.05;;;3.72;;
41456;SDS011;27197;51.752;5.220;2023-07-16T05:46:40;6.22;;;3.87;;
41456;SDS011;27197;51.752;5.220;2023-07-16T05:49:13;10.05;;;4.00;;
41456;SDS011;27197;51.752;5.220;2023-07-16T05:51:43;9.58;;;3.92;;
41456;SDS011;27197;51.752;5.220;2023-07-16T05:54:17;7.72;;;3.50;;
41456;SDS011;27197;51.752;5.220;2023-07-16T05:56:47;9.25;;;3.98;;
41456;SDS011;27197;51.752;5.220;2023-07-16T05:59:20;8.58;;;4.00;;
41456;SDS011;27197;51.752;5.220;2023-07-16T06:01:48;9.33;;;4.12;;
41456;SDS011;27197;51.752;5.220;2023-07-16T06:04:22;6.83;;;3.92;;
41456;SDS011;27197;51.752;5.220;2023-07-16T06:06:51;7.28;;;4.15;;
41456;SDS011;27197;51.752;5.220;2023-07-16T06:09:26;8.38;;;4.55;;
41456;SDS011;27197;51.752;5.220;2023-07-16T06:11:55;7.58;;;4.95;;
41456;SDS011;27197;51.752;5.220;2023-07-16T06:14:33;7.80;;;4.58;;
41456;SDS011;27197;51.752;5.220;2023-07-16T06:17:03;8.83;;;4.00;;
41456;SDS011;27197;51.752;5.220;2023-07-16T06:19:35;8.78;;;4.42;;
41456;SDS011;27197;51.752;5.220;2023-07-16T06:22:06;7.50;;;4.97;;
41456;SDS011;27197;51.752;5.220;2023-07-16T06:24:38;8.13;;;3.83;;
41456;SDS011;27197;51.752;5.220;2023-07-16T06:27:14;9.63;;;4.58;;
41456;SDS011;27197;51.752;5.220;2023-07-16T06:29:44;6.53;;;4.12;;
41456;SDS011;27197;51.752;5.220;2023-07-16T06:32:19;9.28;;;4.97;;
41456;SDS011;27197;51.752;5.220;2023-07-16T06:34:51;6.20;;;3.83;;
41456;SDS011;27197;51.752;5.220;2023-07-16T06:37:24;8.33;;;4.78;;
41456;SDS011;27197;51.752;5.220;2023-07-16T06:39:53;8.45;;;4.67;;
41456;SDS011;27197;51.752;5.220;2023-07-16T06:42:27;10.30;;;4.65;;
41456;SDS011;27197;51.752;5.220;2023-07-16T06:44:58;11.80;;;5.08;;
41456;SDS011;27197;51.752;5.220;2023-07-16T06:47:30;8.63;;;4.58;;
41456;SDS011;27197;51.752;5.220;2023-07-16T06:50:06;8.93;;;4.40;;
41456;SDS011;27197;51.752;5.220;2023-07-16T06:52:39;6.92;;;4.47;;
41456;SDS011;27197;51.752;5.220;2023-07-16T06:55:12;10.50;;;5.08;;
41456;SDS011;27197;51.752;5.220;2023-07-16T06:57:43;8.08;;;4.03;;
41456;SDS011;27197;51.752;5.220;2023-07-16T07:00:14;8.18;;;4.83;;
41456;SDS011;27197;51.752;5.220;2023-07-16T07:02:44;6.53;;;4.20;;
41456;SDS011;27197;51.752;5.220;2023-07-16T07:05:16;9.25;;;4.67;;
41456;SDS011;27197;51.752;5.220;2023-07-16T07:07:47;8.95;;;4.65;;
41456;SDS011;27197;51.752;5.220;2023-07-16T07:10:20;7.17;;;4.85;;
41456;SDS011;27197;51.752;5.220;2023-07-16T07:12:50;9.70;;;4.62;;
41456;SDS011;27197;51.752;5.220;2023-07-16T07:15:22;7.35;;;4.37;;
41456;SDS011;27197;51.752;5.220;2023-07-16T07:17:52;12.07;;;4.97;;
41456;SDS011;27197;51.752;5.220;2023-07-16T07:20:24;11.03;;;5.28;;
41456;SDS011;27197;51.752;5.220;2023-07-16T07:22:55;9.98;;;4.65;;
41456;SDS011;27197;51.752;5.220;2023-07-16T07:25:28;11.40;;;4.83;;
41456;SDS011;27197;51.752;5.220;2023-07-16T07:28:02;9.30;;;5.00;;
41456;SDS011;27197;51.752;5.220;2023-07-16T07:30:33;10.10;;;4.85;;
41456;SDS011;27197;51.752;5.220;2023-07-16T07:33:08;11.93;;;5.08;;
41456;SDS011;27197;51.752;5.220;2023-07-16T07:35:37;11.12;;;5.17;;
41456;SDS011;27197;51.752;5.220;2023-07-16T07:38:08;10.08;;;4.70;;
41456;SDS011;27197;51.752;5.220;2023-07-16T07:40:42;9.73;;;5.12;;
41456;SDS011;27197;51.752;5.220;2023-07-16T07:43:12;10.20;;;5.40;;
41456;SDS011;27197;51.752;5.220;2023-07-16T07:45:44;11.33;;;5.37;;
41456;SDS011;27197;51.752;5.220;2023-07-16T07:48:14;6.47;;;4.90;;
41456;SDS011;27197;51.752;5.220;2023-07-16T07:50:46;8.85;;;4.90;;
41456;SDS011;27197;51.752;5.220;2023-07-16T07:53:23;8.53;;;4.90;;
41456;SDS011;27197;51.752;5.220;2023-07-16T07:55:54;8.60;;;4.87;;
41456;SDS011;27197;51.752;5.220;2023-07-16T07:58:23;10.43;;;5.60;;
41456;SDS011;27197;51.752;5.220;2023-07-16T08:00:52;13.20;;;5.05;;
41456;SDS011;27197;51.752;5.220;2023-07-16T08:03:22;10.65;;;5.47;;
41456;SDS011;27197;51.752;5.220;2023-07-16T08:05:54;9.55;;;5.00;;
41456;SDS011;27197;51.752;5.220;2023-07-16T08:08:28;10.80;;;5.17;;
41456;SDS011;27197;51.752;5.220;2023-07-16T08:11:02;8.90;;;5.03;;
41456;SDS011;27197;51.752;5.220;2023-07-16T08:13:30;10.08;;;5.12;;
41456;SDS011;27197;51.752;5.220;2023-07-16T08:16:02;9.40;;;5.05;;
41456;SDS011;27197;51.752;5.220;2023-07-16T08:18:34;11.33;;;4.80;;
41456;SDS011;27197;51.752;5.220;2023-07-16T08:21:09;9.38;;;5.10;;
41456;SDS011;27197;51.752;5.220;2023-07-16T08:23:39;9.45;;;5.05;;
41456;SDS011;27197;51.752;5.220;2023-07-16T08:26:11;8.20;;;5.03;;
41456;SDS011;27197;51.752;5.220;2023-07-16T08:28:40;10.55;;;4.97;;
41456;SDS011;27197;51.752;5.220;2023-07-16T08:31:12;8.50;;;4.85;;
41456;SDS011;27197;51.752;5.220;2023-07-16T08:33:41;7.62;;;5.12;;
41456;SDS011;27197;51.752;5.220;2023-07-16T08:36:12;10.43;;;5.30;;
41456;SDS011;27197;51.752;5.220;2023-07-16T08:38:46;8.95;;;4.92;;
41456;SDS011;27197;51.752;5.220;2023-07-16T08:41:16;11.45;;;4.80;;
41456;SDS011;27197;51.752;5.220;2023-07-16T08:43:46;11.55;;;5.17;;
41456;SDS011;27197;51.752;5.220;2023-07-16T08:46:18;10.03;;;5.83;;
41456;SDS011;27197;51.752;5.220;2023-07-16T08:48:52;17.40;;;6.35;;
41456;SDS011;27197;51.752;5.220;2023-07-16T08:51:28;10.60;;;5.42;;
41456;SDS011;27197;51.752;5.220;2023-07-16T08:54:02;10.90;;;5.00;;
41456;SDS011;27197;51.752;5.220;2023-07-16T08:56:35;8.55;;;5.85;;
41456;SDS011;27197;51.752;5.220;2023-07-16T08:59:09;9.20;;;5.12;;
41456;SDS011;27197;51.752;5.220;2023-07-16T09:01:40;9.68;;;4.55;;
41456;SDS011;27197;51.752;5.220;2023-07-16T09:04:14;8.50;;;4.87;;
41456;SDS011;27197;51.752;5.220;2023-07-16T09:06:44;11.00;;;4.85;;
41456;SDS011;27197;51.752;5.220;2023-07-16T09:09:24;9.30;;;4.78;;
41456;SDS011;27197;51.752;5.220;2023-07-16T09:11:55;7.37;;;4.53;;
41456;SDS011;27197;51.752;5.220;2023-07-16T09:14:28;9.93;;;5.00;;
41456;SDS011;27197;51.752;5.220;2023-07-16T09:16:59;10.38;;;4.97;;
41456;SDS011;27197;51.752;5.220;2023-07-16T14:07:51;3.50;;;1.22;;
41456;SDS011;27197;51.752;5.220;2023-07-16T14:10:25;5.50;;;1.55;;
41456;SDS011;27197;51.752;5.220;2023-07-16T14:12:58;3.83;;;1.45;;
41456;SDS011;27197;51.752;5.220;2023-07-16T14:15:31;3.22;;;1.32;;
41456;SDS011;27197;51.752;5.220;2023-07-16T14:18:02;4.55;;;1.77;;
41456;SDS011;27197;51.752;5.220;2023-07-16T14:20:37;4.25;;;1.80;;
41456;SDS011;27197;51.752;5.220;2023-07-16T14:23:07;5.30;;;2.20;;
41456;SDS011;27197;51.752;5.220;2023-07-16T14:25:42;4.62;;;1.70;;
41456;SDS011;27197;51.752;5.220;2023-07-16T14:28:12;3.42;;;1.62;;
41456;SDS011;27197;51.752;5.220;2023-07-16T14:30:45;5.25;;;1.92;;
41456;SDS011;27197;51.752;5.220;2023-07-16T14:33:15;4.62;;;2.40;;
41456;SDS011;27197;51.752;5.220;2023-07-16T14:35:48;4.65;;;1.80;;
41456;SDS011;27197;51.752;5.220;2023-07-16T14:38:18;6.05;;;2.33;;
41456;SDS011;27197;51.752;5.220;2023-07-16T14:40:54;4.35;;;1.82;;
41456;SDS011;27197;51.752;5.220;2023-07-16T14:43:24;5.00;;;2.00;;
41456;SDS011;27197;51.752;5.220;2023-07-16T14:45:55;5.37;;;1.80;;
41456;SDS011;27197;51.752;5.220;2023-07-16T14:48:25;5.28;;;2.45;;
41456;SDS011;27197;51.752;5.220;2023-07-16T14:50:57;3.98;;;1.90;;
41456;SDS011;27197;51.752;5.220;2023-07-16T14:53:30;5.42;;;2.02;;
41456;SDS011;27197;51.752;5.220;2023-07-16T14:56:04;5.03;;;2.08;;
41456;SDS011;27197;51.752;5.220;2023-07-16T14:58:38;5.15;;;2.75;;
41456;SDS011;27197;51.752;5.220;2023-07-16T15:01:07;6.60;;;2.92;;
41456;SDS011;27197;51.752;5.220;2023-07-16T15:03:43;6.12;;;2.85;;
41456;SDS011;27197;51.752;5.220;2023-07-16T15:06:15;6.92;;;2.70;;
41456;SDS011;27197;51.752;5.220;2023-07-16T15:08:50;5.65;;;2.22;;
41456;SDS011;27197;51.752;5.220;2023-07-16T15:11:19;5.47;;;2.30;;
41456;SDS011;27197;51.752;5.220;2023-07-16T15:13:49;4.45;;;2.45;;
41456;SDS011;27197;51.752;5.220;2023-07-16T15:16:21;5.90;;;3.00;;
41456;SDS011;27197;51.752;5.220;2023-07-16T15:18:51;5.03;;;2.50;;
41456;SDS011;27197;51.752;5.220;2023-07-16T15:21:23;5.37;;;2.52;;
41456;SDS011;27197;51.752;5.220;2023-07-16T15:23:54;5.70;;;3.17;;
41456;SDS011;27197;51.752;5.220;2023-07-16T15:26:25;6.78;;;2.50;;
41456;SDS011;27197;51.752;5.220;2023-07-16T15:28:56;5.42;;;2.50;;
41456;SDS011;27197;51.752;5.220;2023-07-16T15:31:27;5.67;;;2.98;;
41456;SDS011;27197;51.752;5.220;2023-07-16T15:34:01;5.22;;;2.90;;
41456;SDS011;27197;51.752;5.220;2023-07-16T15:36:30;7.35;;;3.22;;
41456;SDS011;27197;51.752;5.220;2023-07-16T15:39:00;8.03;;;2.95;;
41456;SDS011;27197;51.752;5.220;2023-07-16T15:41:28;4.58;;;2.52;;
41456;SDS011;27197;51.752;5.220;2023-07-16T15:44:00;4.92;;;2.50;;
41456;SDS011;27197;51.752;5.220;2023-07-16T15:46:29;6.53;;;2.87;;
41456;SDS011;27197;51.752;5.220;2023-07-16T15:49:03;5.92;;;2.62;;
41456;SDS011;27197;51.752;5.220;2023-07-16T15:51:32;4.00;;;2.35;;
41456;SDS011;27197;51.752;5.220;2023-07-16T15:54:05;4.33;;;2.02;;
41456;SDS011;27197;51.752;5.220;2023-07-16T15:56:41;4.53;;;2.10;;
41456;SDS011;27197;51.752;5.220;2023-07-16T15:59:10;4.47;;;2.25;;
41456;SDS011;27197;51.752;5.220;2023-07-16T16:01:41;4.92;;;2.15;;
41456;SDS011;27197;51.752;5.220;2023-07-16T16:04:15;3.87;;;2.00;;
41456;SDS011;27197;51.752;5.220;2023-07-16T16:06:48;3.85;;;1.95;;
41456;SDS011;27197;51.752;5.220;2023-07-16T16:09:20;3.37;;;1.70;;
41456;SDS011;27197;51.752;5.220;2023-07-16T16:11:50;4.55;;;2.30;;
41456;SDS011;27197;51.752;5.220;2023-07-16T16:14:23;5.78;;;3.02;;
41456;SDS011;27197;51.752;5.220;2023-07-16T16:16:58;4.80;;;1.87;;
41456;SDS011;27197;51.752;5.220;2023-07-16T16:19:28;3.50;;;1.80;;
41456;SDS011;27197;51.752;5.220;2023-07-16T16:22:03;4.92;;;2.20;;
41456;SDS011;27197;51.752;5.220;2023-07-16T16:24:33;3.45;;;1.90;;
41456;SDS011;27197;51.752;5.220;2023-07-16T16:37:46;4.00;;;1.75;;
41456;SDS011;27197;51.752;5.220;2023-07-16T16:40:18;5.42;;;2.33;;
41456;SDS011;27197;51.752;5.220;2023-07-16T16:42:50;3.60;;;1.82;;
41456;SDS011;27197;51.752;5.220;2023-07-16T16:45:23;3.02;;;1.82;;
41456;SDS011;27197;51.752;5.220;2023-07-16T16:47:53;4.75;;;1.90;;
41456;SDS011;27197;51.752;5.220;2023-07-16T16:50:24;3.80;;;2.00;;
41456;SDS011;27197;51.752;5.220;2023-07-16T16:52:56;4.58;;;2.25;;
41456;SDS011;27197;51.752;5.220;2023-07-16T16:55:25;3.80;;;1.87;;
41456;SDS011;27197;51.752;5.220;2023-07-16T16:57:59;2.83;;;1.75;;
41456;SDS011;27197;51.752;5.220;2023-07-16T17:00:29;3.47;;;1.77;;
41456;SDS011;27197;51.752;5.220;2023-07-16T17:02:59;4.65;;;1.90;;
41456;SDS011;27197;51.752;5.220;2023-07-16T17:05:33;5.37;;;2.05;;
41456;SDS011;27197;51.752;5.220;2023-07-16T17:08:06;6.25;;;2.00;;
41456;SDS011;27197;51.752;5.220;2023-07-16T17:10:39;5.25;;;2.10;;
41456;SDS011;27197;51.752;5.220;2023-07-16T17:13:09;5.40;;;2.20;;
41456;SDS011;27197;51.752;5.220;2023-07-16T17:15:41;5.28;;;2.05;;
41456;SDS011;27197;51.752;5.220;2023-07-16T17:18:16;3.70;;;1.45;;
41456;SDS011;27197;51.752;5.220;2023-07-16T17:20:44;6.30;;;1.90;;
41456;SDS011;27197;51.752;5.220;2023-07-16T17:23:18;3.72;;;1.72;;
41456;SDS011;27197;51.752;5.220;2023-07-16T17:25:48;5.45;;;1.92;;
41456;SDS011;27197;51.752;5.220;2023-07-16T17:28:18;2.90;;;1.40;;
41456;SDS011;27197;51.752;5.220;2023-07-16T17:30:51;3.95;;;1.57;;
41456;SDS011;27197;51.752;5.220;2023-07-16T17:33:22;4.60;;;1.75;;
41456;SDS011;27197;51.752;5.220;2023-07-16T17:35:54;5.12;;;1.98;;
41456;SDS011;27197;51.752;5.220;2023-07-16T17:38:29;5.03;;;1.82;;
41456;SDS011;27197;51.752;5.220;2023-07-16T17:40:59;3.98;;;1.72;;
41456;SDS011;27197;51.752;5.220;2023-07-16T17:43:31;2.65;;;1.40;;
41456;SDS011;27197;51.752;5.220;2023-07-16T17:46:08;2.72;;;1.45;;
41456;SDS011;27197;51.752;5.220;2023-07-16T17:48:36;4.65;;;1.95;;
41456;SDS011;27197;51.752;5.220;2023-07-16T17:51:09;4.78;;;1.85;;
41456;SDS011;27197;51.752;5.220;2023-07-16T17:53:40;4.53;;;1.50;;
41456;SDS011;27197;51.752;5.220;2023-07-16T17:56:11;2.35;;;1.27;;
41456;SDS011;27197;51.752;5.220;2023-07-16T17:58:43;4.03;;;1.75;;
41456;SDS011;27197;51.752;5.220;2023-07-16T18:01:15;3.65;;;1.62;;
41456;SDS011;27197;51.752;5.220;2023-07-16T18:03:45;3.58;;;2.05;;
41456;SDS011;27197;51.752;5.220;2023-07-16T18:06:19;3.12;;;1.32;;
41456;SDS011;27197;51.752;5.220;2023-07-16T18:08:49;3.60;;;1.15;;
41456;SDS011;27197;51.752;5.220;2023-07-16T18:11:18;2.83;;;1.30;;
41456;SDS011;27197;51.752;5.220;2023-07-16T18:13:51;11.00;;;2.75;;
41456;SDS011;27197;51.752;5.220;2023-07-16T18:16:21;3.25;;;1.42;;
41456;SDS011;27197;51.752;5.220;2023-07-16T18:18:55;6.12;;;1.95;;
41456;SDS011;27197;51.752;5.220;2023-07-16T18:21:25;4.25;;;1.80;;
41456;SDS011;27197;51.752;5.220;2023-07-16T18:23:58;3.05;;;1.77;;
41456;SDS011;27197;51.752;5.220;2023-07-16T18:26:28;4.45;;;1.95;;
41456;SDS011;27197;51.752;5.220;2023-07-16T18:29:03;3.42;;;1.50;;
41456;SDS011;27197;51.752;5.220;2023-07-16T18:31:33;2.77;;;1.40;;
41456;SDS011;27197;51.752;5.220;2023-07-16T18:34:05;2.72;;;1.20;;
41456;SDS011;27197;51.752;5.220;2023-07-16T18:36:36;2.80;;;1.40;;
41456;SDS011;27197;51.752;5.220;2023-07-16T18:39:09;3.92;;;1.92;;
41456;SDS011;27197;51.752;5.220;2023-07-16T18:41:38;4.05;;;1.72;;
41456;SDS011;27197;51.752;5.220;2023-07-16T18:44:12;3.27;;;1.40;;
41456;SDS011;27197;51.752;5.220;2023-07-16T18:46:45;3.55;;;1.40;;
41456;SDS011;27197;51.752;5.220;2023-07-16T18:49:17;3.62;;;1.32;;
41456;SDS011;27197;51.752;5.220;2023-07-16T18:51:48;2.37;;;1.07;;
41456;SDS011;27197;51.752;5.220;2023-07-16T18:54:21;3.30;;;1.22;;
41456;SDS011;27197;51.752;5.220;2023-07-16T18:56:54;3.65;;;1.75;;
41456;SDS011;27197;51.752;5.220;2023-07-16T18:59:24;3.05;;;1.42;;
41456;SDS011;27197;51.752;5.220;2023-07-16T19:01:56;4.22;;;1.40;;
41456;SDS011;27197;51.752;5.220;2023-07-16T19:04:29;2.45;;;1.20;;
41456;SDS011;27197;51.752;5.220;2023-07-16T19:07:01;3.40;;;1.30;;
41456;SDS011;27197;51.752;5.220;2023-07-16T19:09:33;7.15;;;1.70;;
41456;SDS011;27197;51.752;5.220;2023-07-16T19:12:02;3.08;;;1.40;;
41456;SDS011;27197;51.752;5.220;2023-07-16T19:14:35;4.12;;;1.12;;
41456;SDS011;27197;51.752;5.220;2023-07-16T19:17:18;5.10;;;1.60;;
41456;SDS011;27197;51.752;5.220;2023-07-16T19:19:44;3.67;;;1.72;;
41456;SDS011;27197;51.752;5.220;2023-07-16T19:22:14;3.00;;;1.20;;
41456;SDS011;27197;51.752;5.220;2023-07-16T19:24:45;3.55;;;1.40;;
41456;SDS011;27197;51.752;5.220;2023-07-16T19:27:17;4.35;;;1.40;;
41456;SDS011;27197;51.752;5.220;2023-07-16T19:29:50;3.10;;;1.12;;
41456;SDS011;27197;51.752;5.220;2023-07-16T19:32:20;2.80;;;1.50;;
41456;SDS011;27197;51.752;5.220;2023-07-16T19:34:50;2.90;;;1.30;;
41456;SDS011;27197;51.752;5.220;2023-07-16T19:37:23;6.22;;;1.80;;
41456;SDS011;27197;51.752;5.220;2023-07-16T19:39:53;3.00;;;1.50;;
41456;SDS011;27197;51.752;5.220;2023-07-16T19:42:24;4.95;;;1.55;;
41456;SDS011;27197;51.752;5.220;2023-07-16T19:44:53;3.55;;;1.50;;
41456;SDS011;27197;51.752;5.220;2023-07-16T19:47:24;2.95;;;1.50;;
41456;SDS011;27197;51.752;5.220;2023-07-16T19:49:57;3.55;;;1.30;;
41456;SDS011;27197;51.752;5.220;2023-07-16T19:54:57;2.42;;;1.30;;
41456;SDS011;27197;51.752;5.220;2023-07-16T19:57:30;2.83;;;1.40;;
41456;SDS011;27197;51.752;5.220;2023-07-16T20:00:00;2.90;;;1.40;;
41456;SDS011;27197;51.752;5.220;2023-07-16T20:02:33;3.52;;;1.65;;
41456;SDS011;27197;51.752;5.220;2023-07-16T20:05:03;3.90;;;1.60;;
41456;SDS011;27197;51.752;5.220;2023-07-16T20:07:35;3.47;;;1.40;;
41456;SDS011;27197;51.752;5.220;2023-07-16T20:10:06;4.05;;;1.55;;
41456;SDS011;27197;51.752;5.220;2023-07-16T20:12:40;3.35;;;1.32;;
41456;SDS011;27197;51.752;5.220;2023-07-16T20:50:56;2.67;;;1.35;;
41456;SDS011;27197;51.752;5.220;2023-07-16T20:53:31;2.77;;;1.40;;
41456;SDS011;27197;51.752;5.220;2023-07-16T20:56:01;1.90;;;1.20;;
41456;SDS011;27197;51.752;5.220;2023-07-16T20:58:34;5.05;;;1.75;;
41456;SDS011;27197;51.752;5.220;2023-07-16T21:01:04;4.40;;;1.75;;
41456;SDS011;27197;51.752;5.220;2023-07-16T21:03:35;4.00;;;1.52;;
41456;SDS011;27197;51.752;5.220;2023-07-16T21:06:09;4.45;;;2.00;;
41456;SDS011;27197;51.752;5.220;2023-07-16T21:08:40;4.90;;;1.70;;
41456;SDS011;27197;51.752;5.220;2023-07-16T21:11:11;3.08;;;1.50;;
41456;SDS011;27197;51.752;5.220;2023-07-16T21:13:43;2.80;;;1.40;;
41456;SDS011;27197;51.752;5.220;2023-07-16T21:16:20;4.50;;;1.67;;
41456;SDS011;27197;51.752;5.220;2023-07-16T21:18:55;3.87;;;1.67;;
41456;SDS011;27197;51.752;5.220;2023-07-16T21:21:28;3.80;;;1.70;;
41456;SDS011;27197;51.752;5.220;2023-07-16T21:23:57;5.00;;;1.90;;
41456;SDS011;27197;51.752;5.220;2023-07-16T21:26:30;3.33;;;1.57;;
41456;SDS011;27197;51.752;5.220;2023-07-16T21:29:05;4.00;;;1.60;;
41456;SDS011;27197;51.752;5.220;2023-07-16T21:31:34;4.40;;;1.82;;
41456;SDS011;27197;51.752;5.220;2023-07-16T21:34:05;3.98;;;1.45;;
41456;SDS011;27197;51.752;5.220;2023-07-16T21:36:36;4.15;;;1.82;;
41456;SDS011;27197;51.752;5.220;2023-07-16T21:39:08;3.08;;;1.70;;
41456;SDS011;27197;51.752;5.220;2023-07-16T21:41:38;4.25;;;1.80;;
41456;SDS011;27197;51.752;5.220;2023-07-16T21:44:09;3.17;;;1.75;;
41456;SDS011;27197;51.752;5.220;2023-07-16T21:46:43;4.20;;;1.70;;
41456;SDS011;27197;51.752;5.220;2023-07-16T21:49:17;5.28;;;1.60;;
41456;SDS011;27197;51.752;5.220;2023-07-16T21:51:46;3.15;;;1.62;;
41456;SDS011;27197;51.752;5.220;2023-07-16T21:54:20;3.33;;;1.65;;
41456;SDS011;27197;51.752;5.220;2023-07-16T21:56:51;4.35;;;1.77;;
41456;SDS011;27197;51.752;5.220;2023-07-16T21:59:24;3.77;;;1.90;;
41456;SDS011;27197;51.752;5.220;2023-07-16T22:01:56;4.12;;;1.57;;
41456;SDS011;27197;51.752;5.220;2023-07-16T22:04:28;4.08;;;1.80;;
41456;SDS011;27197;51.752;5.220;2023-07-16T22:07:03;4.55;;;1.70;;
41456;SDS011;27197;51.752;5.220;2023-07-16T22:09:33;3.85;;;1.85;;
41456;SDS011;27197;51.752;5.220;2023-07-16T22:12:05;4.03;;;1.70;;
41456;SDS011;27197;51.752;5.220;2023-07-16T22:14:35;3.70;;;1.80;;
41456;SDS011;27197;51.752;5.220;2023-07-16T22:17:06;3.15;;;1.70;;
41456;SDS011;27197;51.752;5.220;2023-07-16T22:19:43;4.08;;;1.72;;
41456;SDS011;27197;51.752;5.220;2023-07-16T22:22:15;5.67;;;2.02;;
41456;SDS011;27197;51.752;5.220;2023-07-16T22:24:48;4.28;;;1.87;;
41456;SDS011;27197;51.752;5.220;2023-07-16T22:27:19;3.10;;;1.47;;
41456;SDS011;27197;51.752;5.220;2023-07-16T22:29:50;3.98;;;1.70;;
41456;SDS011;27197;51.752;5.220;2023-07-16T22:32:22;3.42;;;1.57;;
41456;SDS011;27197;51.752;5.220;2023-07-16T22:34:55;4.58;;;1.65;;
41456;SDS011;27197;51.752;5.220;2023-07-16T22:37:26;3.92;;;2.00;;
41456;SDS011;27197;51.752;5.220;2023-07-16T22:40:00;3.95;;;1.70;;
41456;SDS011;27197;51.752;5.220;2023-07-16T22:42:30;4.08;;;1.62;;
41456;SDS011;27197;51.752;5.220;2023-07-16T22:45:02;4.40;;;1.70;;
41456;SDS011;27197;51.752;5.220;2023-07-16T22:47:31;3.95;;;1.82;;
41456;SDS011;27197;51.752;5.220;2023-07-16T22:50:02;4.33;;;2.00;;
41456;SDS011;27197;51.752;5.220;2023-07-16T22:52:32;3.52;;;1.77;;
41456;SDS011;27197;51.752;5.220;2023-07-16T22:55:03;3.33;;;1.40;;
41456;SDS011;27197;51.752;5.220;2023-07-16T22:57:37;3.83;;;1.57;;
41456;SDS011;27197;51.752;5.220;2023-07-16T23:00:06;3.92;;;1.60;;
41456;SDS011;27197;51.752;5.220;2023-07-16T23:02:41;2.42;;;1.27;;
41456;SDS011;27197;51.752;5.220;2023-07-16T23:05:11;4.37;;;1.42;;
41456;SDS011;27197;51.752;5.220;2023-07-16T23:07:44;3.70;;;1.85;;
41456;SDS011;27197;51.752;5.220;2023-07-16T23:10:16;3.45;;;1.72;;
41456;SDS011;27197;51.752;5.220;2023-07-16T23:12:47;4.37;;;2.02;;
41456;SDS011;27197;51.752;5.220;2023-07-16T23:15:21;4.03;;;2.00;;
41456;SDS011;27197;51.752;5.220;2023-07-16T23:17:51;5.40;;;1.85;;
41456;SDS011;27197;51.752;5.220;2023-07-16T23:20:23;4.30;;;2.30;;
41456;SDS011;27197;51.752;5.220;2023-07-16T23:22:53;4.70;;;1.60;;
41456;SDS011;27197;51.752;5.220;2023-07-16T23:25:24;3.60;;;1.60;;
41456;SDS011;27197;51.752;5.220;2023-07-16T23:27:59;3.33;;;1.57;;
41456;SDS011;27197;51.752;5.220;2023-07-16T23:59:44;5.92;;;1.87;;
